Time,TemperatureF,DewpointF,PressureIn,WindDirection,WindDirectionDegrees,WindSpeedMPH,WindSpeedGustMPH,Humidity,HourlyPrecipIn,Conditions,Clouds,dailyrainin,SoftwareType,DateUTC
2013-01-24 00:03:00,41.5,41.3,30.16,South,180,1.1,0.0,99,0.00,RA,,0.00,WeatherDisplay:10.37,2013-01-24 08:03:00,
2013-01-24 00:08:00,41.5,41.3,30.15,South,180,0.0,0.0,99,0.00,RA,,0.00,WeatherDisplay:10.37,2013-01-24 08:08:00,
2013-01-24 00:13:00,41.4,41.1,30.16,South,180,0.0,0.0,99,0.00,CLR,,0.00,WeatherDisplay:10.37,2013-01-24 08:13:00,
2013-01-24 00:18:00,41.5,41.3,30.15,West,270,0.0,0.0,99,0.00,CLR,,0.00,WeatherDisplay:10.37,2013-01-24 08:18:00,
2013-01-24 00:23:00,41.5,41.3,30.15,West,270,0.0,0.0,99,0.00,CLR,,0.00,WeatherDisplay:10.37,2013-01-24 08:23:00,
2013-01-24 00:28:00,41.5,41.3,30.15,West,270,0.0,0.0,99,0.00,CLR,,0.00,WeatherDisplay:10.37,2013-01-24 08:28:00,
2013-01-24 00:33:00,41.5,41.3,30.15,West,270,0.0,0.0,99,0.00,CLR,,0.00,WeatherDisplay:10.37,2013-01-24 08:33:00,
2013-01-24 00:38:00,41.7,41.5,30.15,West,270,0.0,0.0,99,0.00,CLR,,0.00,WeatherDisplay:10.37,2013-01-24 08:38:00,
2013-01-24 00:43:00,41.7,41.5,30.15,West,270,0.0,0.0,99,0.00,CLR,,0.00,WeatherDisplay:10.37,2013-01-24 08:43:00,
2013-01-24 00:48:00,41.7,41.5,30.16,West,270,1.1,0.0,99,0.00,CLR,,0.00,WeatherDisplay:10.37,2013-01-24 08:48:00,
2013-01-24 00:54:00,41.7,41.5,30.16,West,270,0.0,0.0,99,0.00,CLR,,0.00,WeatherDisplay:10.37,2013-01-24 08:54:00,
2013-01-24 00:59:00,41.7,41.5,30.16,West,270,0.0,0.0,99,0.00,CLR,,0.00,WeatherDisplay:10.37,2013-01-24 08:59:00,
2013-01-24 01:04:00,41.7,41.5,30.16,West,270,0.0,0.0,99,0.00,CLR,,0.00,WeatherDisplay:10.37,2013-01-24 09:04:00,
2013-01-24 01:09:00,41.7,41.5,30.16,NE,45,1.1,0.0,99,0.00,CLR,,0.00,WeatherDisplay:10.37,2013-01-24 09:09:00,
2013-01-24 01:14:00,41.7,41.5,30.16,NE,45,0.0,0.0,99,0.00,CLR,,0.00,WeatherDisplay:10.37,2013-01-24 09:14:00,
2013-01-24 01:19:00,41.7,41.5,30.16,NE,45,0.0,0.0,99,0.00,CLR,,0.00,WeatherDisplay:10.37,2013-01-24 09:19:00,
2013-01-24 01:24:00,41.7,41.5,30.16,NE,45,0.0,0.0,99,0.00,CLR,,0.00,WeatherDisplay:10.37,2013-01-24 09:24:00,
2013-01-24 01:29:00,41.7,41.5,30.16,NE,45,0.0,0.0,99,0.00,CLR,,0.00,WeatherDisplay:10.37,2013-01-24 09:29:00,
2013-01-24 01:34:00,41.7,41.5,30.16,SW,225,0.0,0.0,99,0.00,CLR,,0.00,WeatherDisplay:10.37,2013-01-24 09:34:00,
2013-01-24 01:39:00,41.7,41.5,30.16,SW,225,0.0,0.0,99,0.00,CLR,,0.00,WeatherDisplay:10.37,2013-01-24 09:39:00,
2013-01-24 01:44:00,41.7,41.5,30.15,SW,225,1.1,0.0,99,0.00,CLR,,0.00,WeatherDisplay:10.37,2013-01-24 09:44:00,
2013-01-24 01:49:00,41.7,41.5,30.16,SW,225,0.0,0.0,99,0.00,CLR,,0.00,WeatherDisplay:10.37,2013-01-24 09:49:00,
2013-01-24 01:54:00,41.7,41.5,30.16,SW,225,0.0,0.0,99,0.00,CLR,,0.00,WeatherDisplay:10.37,2013-01-24 09:54:00,
2013-01-24 01:59:00,41.7,41.5,30.16,SW,225,0.0,0.0,99,0.00,CLR,,0.00,WeatherDisplay:10.37,2013-01-24 09:59:00,
2013-01-24 02:04:00,41.7,41.5,30.16,East,90,1.1,0.0,99,0.00,CLR,,0.00,WeatherDisplay:10.37,2013-01-24 10:04:00,
2013-01-24 02:09:00,41.7,41.5,30.16,South,180,1.1,0.0,99,0.00,CLR,,0.00,WeatherDisplay:10.37,2013-01-24 10:09:00,
2013-01-24 02:14:00,41.7,41.5,30.16,SE,135,1.1,0.0,99,0.00,CLR,,0.00,WeatherDisplay:10.37,2013-01-24 10:14:00,
2013-01-24 02:19:00,41.7,41.5,30.16,North,0,1.1,0.0,99,0.00,CLR,,0.00,WeatherDisplay:10.37,2013-01-24 10:19:00,
2013-01-24 02:24:00,41.5,41.3,30.16,North,0,1.1,0.0,99,0.00,CLR,,0.00,WeatherDisplay:10.37,2013-01-24 10:24:00,
2013-01-24 02:29:00,41.5,41.3,30.16,SE,135,1.1,0.0,99,0.00,CLR,,0.00,WeatherDisplay:10.37,2013-01-24 10:29:00,
2013-01-24 02:34:00,41.5,41.3,30.15,NE,45,1.1,0.0,99,0.00,CLR,,0.00,WeatherDisplay:10.37,2013-01-24 10:34:00,
2013-01-24 02:39:00,37.0,36.3,30.02,SW,225,2.3,0.0,97,0.00,CLR,,0.00,WeatherDisplay:10.37,2013-01-24 10:39:00,
2013-01-24 02:44:00,41.4,41.1,30.15,North,0,1.1,0.0,99,0.00,CLR,,0.00,WeatherDisplay:10.37,2013-01-24 10:44:00,
2013-01-24 02:49:00,41.2,40.9,30.16,North,0,1.1,0.0,99,0.00,CLR,,0.00,WeatherDisplay:10.37,2013-01-24 10:49:00,
2013-01-24 02:54:00,41.2,40.9,30.15,NW,315,0.0,0.0,99,0.00,CLR,,0.00,WeatherDisplay:10.37,2013-01-24 10:54:00,
2013-01-24 02:59:00,41.2,40.9,30.15,NW,315,1.1,0.0,99,0.00,CLR,,0.00,WeatherDisplay:10.37,2013-01-24 10:59:00,
2013-01-24 03:04:00,41.2,40.9,30.15,NW,315,1.1,0.0,99,0.00,CLR,,0.00,WeatherDisplay:10.37,2013-01-24 11:04:00,
2013-01-24 03:09:00,41.2,40.9,30.15,NW,315,0.0,0.0,99,0.00,CLR,,0.00,WeatherDisplay:10.37,2013-01-24 11:09:00,
2013-01-24 03:14:00,41.2,40.9,30.15,North,0,0.0,0.0,99,0.00,CLR,,0.00,WeatherDisplay:10.37,2013-01-24 11:14:00,
2013-01-24 03:19:00,41.0,40.7,30.14,North,0,0.0,0.0,99,0.00,CLR,,0.00,WeatherDisplay:10.37,2013-01-24 11:19:00,
2013-01-24 03:24:00,41.0,40.7,30.14,North,0,1.1,0.0,99,0.00,CLR,,0.00,WeatherDisplay:10.37,2013-01-24 11:24:00,
2013-01-24 03:29:00,41.0,40.7,30.14,North,0,0.0,0.0,99,0.00,CLR,,0.00,WeatherDisplay:10.37,2013-01-24 11:29:00,
2013-01-24 03:34:00,41.0,40.7,30.14,NE,45,1.1,0.0,99,0.00,CLR,,0.00,WeatherDisplay:10.37,2013-01-24 11:34:00,
2013-01-24 03:39:00,41.0,40.7,30.14,NE,45,0.0,0.0,99,0.00,CLR,,0.00,WeatherDisplay:10.37,2013-01-24 11:39:00,
2013-01-24 03:44:00,40.8,40.6,30.14,East,90,1.1,0.0,99,0.00,CLR,,0.00,WeatherDisplay:10.37,2013-01-24 11:44:00,
2013-01-24 03:49:00,40.8,40.6,30.14,NE,45,1.1,1.1,99,0.00,CLR,,0.00,WeatherDisplay:10.37,2013-01-24 11:49:00,
2013-01-24 03:54:00,40.8,40.6,30.14,NE,45,1.1,0.0,99,0.00,CLR,,0.00,WeatherDisplay:10.37,2013-01-24 11:54:00,
2013-01-24 03:59:00,40.6,40.4,30.14,NW,315,1.1,0.0,99,0.00,CLR,,0.00,WeatherDisplay:10.37,2013-01-24 11:59:00,
2013-01-24 04:04:00,40.5,40.2,30.14,West,270,1.1,0.0,99,0.00,CLR,,0.00,WeatherDisplay:10.37,2013-01-24 12:04:00,
2013-01-24 04:09:00,40.5,40.2,30.14,North,0,0.7,0.0,99,0.00,CLR,,0.00,WeatherDisplay:10.37,2013-01-24 12:09:00,
2013-01-24 04:14:00,40.3,40.0,30.14,East,90,2.3,2.3,99,0.00,CLR,,0.00,WeatherDisplay:10.37,2013-01-24 12:14:00,
2013-01-24 04:19:00,40.3,40.0,30.14,North,0,1.1,0.0,99,0.00,CLR,,0.00,WeatherDisplay:10.37,2013-01-24 12:19:00,
2013-01-24 04:24:00,40.3,40.0,30.13,NW,315,1.1,0.0,99,0.00,CLR,,0.00,WeatherDisplay:10.37,2013-01-24 12:24:00,
2013-01-24 04:29:00,40.1,39.8,30.13,NW,315,1.1,0.0,99,0.00,CLR,,0.00,WeatherDisplay:10.37,2013-01-24 12:29:00,
2013-01-24 04:34:00,39.9,39.7,30.13,NW,315,0.0,0.0,99,0.00,CLR,,0.00,WeatherDisplay:10.37,2013-01-24 12:34:00,
2013-01-24 04:39:00,39.6,39.3,30.13,NW,315,1.1,0.0,99,0.00,CLR,,0.00,WeatherDisplay:10.37,2013-01-24 12:39:00,
2013-01-24 04:44:00,39.4,39.1,30.13,NW,315,1.1,0.0,99,0.00,CLR,,0.00,WeatherDisplay:10.37,2013-01-24 12:44:00,
2013-01-24 04:49:00,39.2,38.9,30.13,West,270,0.0,0.0,99,0.00,CLR,,0.00,WeatherDisplay:10.37,2013-01-24 12:49:00,
2013-01-24 04:54:00,39.0,38.8,30.13,West,270,0.0,0.0,99,0.00,CLR,,0.00,WeatherDisplay:10.37,2013-01-24 12:54:00,
2013-01-24 04:59:00,38.7,38.4,30.13,West,270,0.0,0.0,99,0.00,CLR,,0.00,WeatherDisplay:10.37,2013-01-24 12:59:00,
2013-01-24 05:04:00,38.7,38.4,30.13,West,270,0.0,0.0,99,0.00,CLR,,0.00,WeatherDisplay:10.37,2013-01-24 13:04:00,
2013-01-24 05:09:00,38.7,38.4,30.13,West,270,0.0,0.0,99,0.00,CLR,,0.00,WeatherDisplay:10.37,2013-01-24 13:09:00,
2013-01-24 05:14:00,38.7,38.4,30.13,West,270,0.0,0.0,99,0.00,CLR,,0.00,WeatherDisplay:10.37,2013-01-24 13:14:00,
2013-01-24 05:19:00,38.7,38.4,30.13,West,270,0.0,0.0,99,0.00,CLR,,0.00,WeatherDisplay:10.37,2013-01-24 13:19:00,
2013-01-24 05:24:00,38.5,38.2,30.13,SW,225,1.1,0.0,99,0.00,CLR,,0.00,WeatherDisplay:10.37,2013-01-24 13:24:00,
2013-01-24 05:29:00,38.5,38.2,30.13,South,180,0.0,0.0,99,0.00,CLR,,0.00,WeatherDisplay:10.37,2013-01-24 13:29:00,
2013-01-24 05:34:00,38.5,38.2,30.13,East,90,0.0,0.0,99,0.00,CLR,,0.00,WeatherDisplay:10.37,2013-01-24 13:34:00,
2013-01-24 05:39:00,38.1,37.9,30.13,NW,315,1.1,0.0,99,0.00,CLR,,0.00,WeatherDisplay:10.37,2013-01-24 13:39:00,
2013-01-24 05:44:00,37.9,37.7,30.13,North,0,1.1,0.0,99,0.00,CLR,,0.00,WeatherDisplay:10.37,2013-01-24 13:44:00,
2013-01-24 05:49:00,37.8,37.5,30.13,North,0,0.0,0.0,99,0.00,CLR,,0.00,WeatherDisplay:10.37,2013-01-24 13:49:00,
2013-01-24 05:54:00,37.6,37.3,30.13,North,0,1.1,0.0,99,0.00,CLR,,0.00,WeatherDisplay:10.37,2013-01-24 13:54:00,
2013-01-24 05:59:00,37.4,37.1,30.13,NE,45,1.1,0.0,99,0.00,CLR,,0.00,WeatherDisplay:10.37,2013-01-24 13:59:00,
2013-01-24 06:04:00,37.4,37.1,30.13,NE,45,1.1,0.0,99,0.00,CLR,,0.00,WeatherDisplay:10.37,2013-01-24 14:04:00,
2013-01-24 06:09:00,37.4,37.1,30.12,North,0,1.1,0.0,99,0.00,CLR,,0.00,WeatherDisplay:10.37,2013-01-24 14:09:00,
2013-01-24 06:14:00,37.4,37.1,30.13,North,0,0.0,0.0,99,0.00,CLR,,0.00,WeatherDisplay:10.37,2013-01-24 14:14:00,
2013-01-24 06:19:00,37.4,37.1,30.12,NE,45,1.1,1.1,99,0.00,CLR,,0.00,WeatherDisplay:10.37,2013-01-24 14:19:00,
2013-01-24 06:24:00,37.2,37.0,30.12,North,0,0.0,0.0,99,0.00,CLR,,0.00,WeatherDisplay:10.37,2013-01-24 14:24:00,
2013-01-24 06:29:00,37.2,37.0,30.12,NW,315,1.1,0.0,99,0.00,CLR,,0.00,WeatherDisplay:10.37,2013-01-24 14:29:00,
2013-01-24 06:34:00,37.2,37.0,30.12,NW,315,1.1,0.0,99,0.00,CLR,,0.00,WeatherDisplay:10.37,2013-01-24 14:34:00,
2013-01-24 06:39:00,37.2,37.0,30.12,NW,315,1.1,0.0,99,0.00,CLR,,0.00,WeatherDisplay:10.37,2013-01-24 14:39:00,
2013-01-24 06:44:00,37.2,37.0,30.13,West,270,1.1,0.0,99,0.00,CLR,,0.00,WeatherDisplay:10.37,2013-01-24 14:44:00,
2013-01-24 06:49:00,37.2,37.0,30.13,West,270,0.0,0.0,99,0.00,CLR,,0.00,WeatherDisplay:10.37,2013-01-24 14:49:00,
2013-01-24 06:54:00,37.2,37.0,30.12,NW,315,1.1,0.0,99,0.00,CLR,,0.00,WeatherDisplay:10.37,2013-01-24 14:54:00,
2013-01-24 06:59:00,37.2,37.0,30.12,NW,315,1.1,0.0,99,0.00,CLR,,0.00,WeatherDisplay:10.37,2013-01-24 14:59:00,
2013-01-24 07:04:00,37.2,37.0,30.12,SW,225,0.0,0.0,99,0.00,CLR,,0.00,WeatherDisplay:10.37,2013-01-24 15:04:00,
2013-01-24 07:09:00,37.2,37.0,30.12,South,180,1.1,0.0,99,0.00,CLR,,0.00,WeatherDisplay:10.37,2013-01-24 15:09:00,
2013-01-24 07:14:00,37.2,37.0,30.12,SE,135,0.0,0.0,99,0.00,CLR,,0.00,WeatherDisplay:10.37,2013-01-24 15:14:00,
2013-01-24 07:19:00,37.2,37.0,30.11,NE,45,1.1,0.0,99,0.00,CLR,,0.00,WeatherDisplay:10.37,2013-01-24 15:19:00,
2013-01-24 07:24:00,37.0,36.8,30.12,NE,45,1.1,0.0,99,0.00,CLR,,0.00,WeatherDisplay:10.37,2013-01-24 15:24:00,
2013-01-24 07:29:00,37.0,36.8,30.11,North,0,0.0,0.0,99,0.00,CLR,,0.00,WeatherDisplay:10.37,2013-01-24 15:29:00,
2013-01-24 07:34:00,36.9,36.6,30.11,NW,315,0.0,0.0,99,0.00,CLR,,0.00,WeatherDisplay:10.37,2013-01-24 15:34:00,
2013-01-24 07:39:00,36.7,36.4,30.11,NW,315,0.0,0.0,99,0.00,CLR,,0.00,WeatherDisplay:10.37,2013-01-24 15:39:00,
2013-01-24 07:44:00,36.5,36.2,30.11,NW,315,1.1,0.0,99,0.00,CLR,,0.00,WeatherDisplay:10.37,2013-01-24 15:44:00,
2013-01-24 07:49:00,36.5,36.2,30.11,NW,315,1.1,0.0,99,0.00,CLR,,0.00,WeatherDisplay:10.37,2013-01-24 15:49:00,
2013-01-24 07:54:00,36.3,36.1,30.11,West,270,1.1,0.0,99,0.00,CLR,,0.00,WeatherDisplay:10.37,2013-01-24 15:54:00,
2013-01-24 07:59:00,36.3,36.1,30.11,West,270,0.0,0.0,99,0.00,CLR,,0.00,WeatherDisplay:10.37,2013-01-24 15:59:00,
2013-01-24 08:04:00,36.3,36.1,30.11,NW,315,0.0,0.0,99,0.00,CLR,,0.00,WeatherDisplay:10.37,2013-01-24 16:04:00,
2013-01-24 08:09:00,36.1,35.9,30.11,West,270,1.1,0.0,99,0.00,CLR,,0.00,WeatherDisplay:10.37,2013-01-24 16:09:00,
2013-01-24 08:14:00,36.1,35.9,30.11,West,270,1.1,0.0,99,0.00,CLR,,0.00,WeatherDisplay:10.37,2013-01-24 16:14:00,
2013-01-24 08:20:00,36.1,35.9,30.11,West,270,0.0,0.0,99,0.00,CLR,,0.00,WeatherDisplay:10.37,2013-01-24 16:20:00,
2013-01-24 08:25:00,36.1,35.9,30.11,West,270,1.1,0.0,99,0.00,CLR,,0.00,WeatherDisplay:10.37,2013-01-24 16:25:00,
2013-01-24 08:30:00,36.1,35.9,30.12,NW,315,0.0,0.0,99,0.00,CLR,,0.00,WeatherDisplay:10.37,2013-01-24 16:30:00,
2013-01-24 08:35:00,36.1,35.9,30.11,West,270,0.0,0.0,99,0.00,CLR,,0.00,WeatherDisplay:10.37,2013-01-24 16:35:00,
2013-01-24 08:40:00,36.1,35.9,30.11,North,0,1.1,0.0,99,0.00,CLR,,0.00,WeatherDisplay:10.37,2013-01-24 16:40:00,
2013-01-24 08:45:00,36.3,36.1,30.11,North,0,0.0,0.0,99,0.00,CLR,,0.00,WeatherDisplay:10.37,2013-01-24 16:45:00,
2013-01-24 08:50:00,36.3,36.1,30.12,NW,315,0.0,0.0,99,0.00,CLR,,0.00,WeatherDisplay:10.37,2013-01-24 16:50:00,
2013-01-24 08:55:00,36.3,36.1,30.12,SW,225,0.0,0.0,99,0.00,CLR,,0.00,WeatherDisplay:10.37,2013-01-24 16:55:00,
2013-01-24 09:00:00,36.5,36.2,30.12,SW,225,0.0,0.0,99,0.00,CLR,,0.00,WeatherDisplay:10.37,2013-01-24 17:00:00,
2013-01-24 09:05:00,36.9,36.6,30.12,SW,225,0.0,0.0,99,0.00,CLR,,0.00,WeatherDisplay:10.37,2013-01-24 17:05:00,
2013-01-24 09:10:00,37.4,37.1,30.12,SW,225,0.0,0.0,99,0.01,RA,,0.01,WeatherDisplay:10.37,2013-01-24 17:10:00,
2013-01-24 09:15:00,37.9,37.7,30.12,NW,315,1.1,0.0,99,0.01,RA,,0.01,WeatherDisplay:10.37,2013-01-24 17:15:00,
2013-01-24 09:20:00,38.3,38.0,30.12,North,0,1.1,1.1,99,0.01,,,0.01,WeatherDisplay:10.37,2013-01-24 17:20:00,
2013-01-24 09:25:00,38.7,38.4,30.12,South,180,0.0,0.0,99,0.01,CLR,,0.01,WeatherDisplay:10.37,2013-01-24 17:25:00,
2013-01-24 09:30:00,39.2,38.9,30.12,South,180,0.0,0.0,99,0.01,CLR,,0.01,WeatherDisplay:10.37,2013-01-24 17:30:00,
2013-01-24 09:35:00,39.7,39.5,30.12,East,90,0.0,0.0,99,0.01,CLR,,0.01,WeatherDisplay:10.37,2013-01-24 17:35:00,
2013-01-24 09:40:00,40.1,39.8,30.12,East,90,0.0,0.0,99,0.01,CLR,,0.01,WeatherDisplay:10.37,2013-01-24 17:40:00,
2013-01-24 09:45:00,41.5,41.3,30.13,East,90,0.0,0.0,99,0.01,CLR,,0.01,WeatherDisplay:10.37,2013-01-24 17:45:00,
2013-01-24 09:50:00,43.0,42.7,30.13,South,180,2.3,0.0,99,0.01,CLR,,0.01,WeatherDisplay:10.37,2013-01-24 17:50:00,
2013-01-24 09:55:00,44.6,44.3,30.14,South,180,2.3,0.0,99,0.01,CLR,,0.01,WeatherDisplay:10.37,2013-01-24 17:55:00,
2013-01-24 10:00:00,46.8,46.5,30.14,South,180,0.0,0.0,99,0.01,CLR,,0.01,WeatherDisplay:10.37,2013-01-24 18:00:00,
2013-01-24 10:05:00,48.0,47.8,30.14,SE,135,2.3,2.3,99,0.01,CLR,,0.01,WeatherDisplay:10.37,2013-01-24 18:05:00,
2013-01-24 10:10:00,50.0,49.7,30.14,NE,45,1.1,0.0,99,0.00,CLR,,0.01,WeatherDisplay:10.37,2013-01-24 18:10:00,
2013-01-24 10:15:00,52.5,52.2,30.14,NW,315,0.0,0.0,99,0.00,CLR,,0.01,WeatherDisplay:10.37,2013-01-24 18:15:00,
2013-01-24 10:20:00,55.2,54.9,30.14,North,0,0.0,0.0,99,0.00,CLR,,0.01,WeatherDisplay:10.37,2013-01-24 18:20:00,
2013-01-24 10:25:00,57.2,56.4,30.13,North,0,2.3,2.3,97,0.00,CLR,,0.01,WeatherDisplay:10.37,2013-01-24 18:25:00,
2013-01-24 10:30:00,58.6,56.9,30.14,NE,45,1.1,0.0,94,0.00,CLR,,0.01,WeatherDisplay:10.37,2013-01-24 18:30:00,
2013-01-24 10:35:00,60.1,56.8,30.14,NE,45,1.1,1.1,89,0.00,CLR,,0.01,WeatherDisplay:10.37,2013-01-24 18:35:00,
2013-01-24 10:40:00,60.4,56.2,30.14,NE,45,2.3,0.0,86,0.00,CLR,,0.01,WeatherDisplay:10.37,2013-01-24 18:40:00,
2013-01-24 10:45:00,61.2,55.3,30.13,NE,45,2.3,2.3,81,0.00,CLR,,0.01,WeatherDisplay:10.37,2013-01-24 18:45:00,
2013-01-24 10:50:00,61.5,56.0,30.14,North,0,1.1,0.0,82,0.00,CLR,,0.01,WeatherDisplay:10.37,2013-01-24 18:50:00,
2013-01-24 10:55:00,61.9,53.5,30.14,East,90,2.3,2.3,74,0.00,CLR,,0.01,WeatherDisplay:10.37,2013-01-24 18:55:00,
2013-01-24 11:00:00,61.2,52.1,30.13,East,90,3.5,3.5,72,0.00,CLR,,0.01,WeatherDisplay:10.37,2013-01-24 19:00:00,
2013-01-24 11:05:00,61.7,54.4,30.13,West,270,2.3,0.0,77,0.00,CLR,,0.01,WeatherDisplay:10.37,2013-01-24 19:05:00,
2013-01-24 11:10:00,62.4,53.3,30.13,North,0,1.1,1.1,72,0.00,CLR,,0.01,WeatherDisplay:10.37,2013-01-24 19:10:00,
2013-01-24 11:15:00,61.3,52.2,30.13,South,180,1.1,1.1,72,0.00,CLR,,0.01,WeatherDisplay:10.37,2013-01-24 19:15:00,
2013-01-24 11:20:00,60.6,51.2,30.13,East,90,3.5,3.5,71,0.00,CLR,,0.01,WeatherDisplay:10.37,2013-01-24 19:20:00,
2013-01-24 11:25:00,62.6,54.6,30.13,NE,45,1.1,1.1,75,0.00,CLR,,0.01,WeatherDisplay:10.37,2013-01-24 19:25:00,
2013-01-24 11:30:00,63.5,53.1,30.12,NE,45,2.3,2.3,69,0.00,CLR,,0.01,WeatherDisplay:10.37,2013-01-24 19:30:00,
2013-01-24 11:35:00,63.1,53.2,30.12,North,0,3.1,3.1,70,0.00,CLR,,0.01,WeatherDisplay:10.37,2013-01-24 19:35:00,
2013-01-24 11:40:00,65.5,57.0,30.11,North,0,2.3,0.0,74,0.00,CLR,,0.01,WeatherDisplay:10.37,2013-01-24 19:40:00,
2013-01-24 11:45:00,65.7,52.3,30.11,SE,135,5.8,5.8,62,0.00,CLR,,0.01,WeatherDisplay:10.37,2013-01-24 19:45:00,
2013-01-24 11:50:00,64.2,51.4,30.11,SE,135,5.8,5.8,63,0.00,CLR,,0.01,WeatherDisplay:10.37,2013-01-24 19:50:00,
2013-01-24 11:55:00,63.9,51.4,30.11,SE,135,4.6,4.6,64,0.00,CLR,,0.01,WeatherDisplay:10.37,2013-01-24 19:55:00,
2013-01-24 12:00:00,63.3,50.5,30.11,South,180,5.8,5.8,63,0.00,CLR,,0.01,WeatherDisplay:10.37,2013-01-24 20:00:00,
2013-01-24 12:05:00,62.4,50.1,30.11,SW,225,8.1,8.1,64,0.00,CLR,,0.01,WeatherDisplay:10.37,2013-01-24 20:05:00,
2013-01-24 12:10:00,62.2,50.3,30.10,South,180,5.8,5.8,65,0.00,CLR,,0.01,WeatherDisplay:10.37,2013-01-24 20:10:00,
2013-01-24 12:15:00,61.7,49.8,30.11,SW,225,8.1,8.1,65,0.00,CLR,,0.01,WeatherDisplay:10.37,2013-01-24 20:15:00,
2013-01-24 12:20:00,60.4,49.4,30.10,SW,225,9.2,9.2,67,0.00,CLR,,0.01,WeatherDisplay:10.37,2013-01-24 20:20:00,
2013-01-24 12:25:00,59.7,49.9,30.10,SW,225,10.4,10.4,70,0.00,CLR,,0.01,WeatherDisplay:10.37,2013-01-24 20:25:00,
2013-01-24 12:30:00,59.2,49.8,30.10,SW,225,8.1,8.1,71,0.00,CLR,,0.01,WeatherDisplay:10.37,2013-01-24 20:30:00,
2013-01-24 12:35:00,58.3,49.7,30.10,SW,225,9.2,9.2,73,0.00,CLR,,0.01,WeatherDisplay:10.37,2013-01-24 20:35:00,
2013-01-24 12:40:00,57.6,50.0,30.10,South,180,8.1,8.1,76,0.00,CLR,,0.01,WeatherDisplay:10.37,2013-01-24 20:40:00,
2013-01-24 12:45:00,57.6,50.4,30.09,South,180,6.9,6.9,77,0.00,CLR,,0.01,WeatherDisplay:10.37,2013-01-24 20:45:00,
2013-01-24 12:50:00,57.9,50.8,30.09,South,180,8.1,8.1,77,0.00,CLR,,0.01,WeatherDisplay:10.37,2013-01-24 20:50:00,
2013-01-24 12:55:00,58.8,51.6,30.09,South,180,4.6,4.6,77,0.00,CLR,,0.01,WeatherDisplay:10.37,2013-01-24 20:55:00,
2013-01-24 13:00:00,59.5,51.2,30.08,SSW,202,3.5,3.5,74,0.00,CLR,,0.01,WeatherDisplay:10.37,2013-01-24 21:00:00,
2013-01-24 13:05:00,61.0,51.9,30.08,SSW,202,5.8,5.8,72,0.00,CLR,,0.01,WeatherDisplay:10.37,2013-01-24 21:05:00,
2013-01-24 13:10:00,60.6,52.3,30.08,SW,225,8.1,8.1,74,0.00,CLR,,0.01,WeatherDisplay:10.37,2013-01-24 21:10:00,
2013-01-24 13:15:00,59.9,51.6,30.08,West,270,5.8,5.8,74,0.00,CLR,,0.01,WeatherDisplay:10.37,2013-01-24 21:15:00,
2013-01-24 13:20:00,61.0,52.3,30.08,SW,225,8.1,8.1,73,0.00,CLR,,0.01,WeatherDisplay:10.37,2013-01-24 21:20:00,
2013-01-24 13:25:00,61.7,52.6,30.08,SSW,202,6.9,6.9,72,0.00,CLR,,0.01,WeatherDisplay:10.37,2013-01-24 21:25:00,
2013-01-24 13:30:00,60.8,52.1,30.08,SSE,158,6.9,6.9,73,0.00,CLR,,0.01,WeatherDisplay:10.37,2013-01-24 21:30:00,
2013-01-24 13:35:00,60.3,51.9,30.08,South,180,6.9,6.9,74,0.00,CLR,,0.01,WeatherDisplay:10.37,2013-01-24 21:35:00,
2013-01-24 13:40:00,60.1,52.1,30.08,South,180,6.9,6.9,75,0.00,CLR,,0.01,WeatherDisplay:10.37,2013-01-24 21:40:00,
2013-01-24 13:45:00,61.0,52.3,30.08,SW,225,8.1,8.1,73,0.00,CLR,,0.01,WeatherDisplay:10.37,2013-01-24 21:45:00,
2013-01-24 13:50:00,62.1,52.5,30.07,South,180,5.8,5.8,71,0.00,CLR,,0.01,WeatherDisplay:10.37,2013-01-24 21:50:00,
2013-01-24 13:55:00,61.3,51.9,30.08,South,180,5.8,5.8,71,0.00,CLR,,0.01,WeatherDisplay:10.37,2013-01-24 21:55:00,
2013-01-24 14:00:00,61.3,52.2,30.08,SW,225,5.8,5.8,72,0.00,CLR,,0.01,WeatherDisplay:10.37,2013-01-24 22:00:00,
2013-01-24 14:05:00,60.6,51.9,30.08,SW,225,4.6,4.6,73,0.00,CLR,,0.01,WeatherDisplay:10.37,2013-01-24 22:05:00,
2013-01-24 14:10:00,59.9,51.6,30.08,SW,225,8.1,8.1,74,0.00,CLR,,0.01,WeatherDisplay:10.37,2013-01-24 22:10:00,
2013-01-24 14:15:00,59.7,52.1,30.08,SW,225,3.5,3.5,76,0.00,CLR,,0.01,WeatherDisplay:10.37,2013-01-24 22:15:00,
2013-01-24 14:20:00,59.4,51.4,30.08,SW,225,8.3,8.3,75,0.00,CLR,,0.01,WeatherDisplay:10.37,2013-01-24 22:20:00,
2013-01-24 14:25:00,59.2,52.3,30.08,SW,225,10.4,10.4,78,0.00,CLR,,0.01,WeatherDisplay:10.37,2013-01-24 22:25:00,
2013-01-24 14:30:00,58.8,51.6,30.08,SW,225,8.1,8.1,77,0.00,CLR,,0.01,WeatherDisplay:10.37,2013-01-24 22:30:00,
2013-01-24 14:35:00,57.9,50.4,30.09,SW,225,8.1,8.3,76,0.00,CLR,,0.01,WeatherDisplay:10.37,2013-01-24 22:35:00,
2013-01-24 14:40:00,57.2,50.7,30.09,South,180,10.4,10.4,79,0.00,CLR,,0.01,WeatherDisplay:10.37,2013-01-24 22:40:00,
2013-01-24 14:45:00,56.8,51.1,30.09,SW,225,6.9,6.9,81,0.00,CLR,,0.01,WeatherDisplay:10.37,2013-01-24 22:45:00,
2013-01-24 14:50:00,56.7,50.6,30.09,SW,225,10.4,10.4,80,0.00,CLR,,0.01,WeatherDisplay:10.37,2013-01-24 22:50:00,
2013-01-24 14:55:00,56.3,50.2,30.09,SW,225,5.8,5.8,80,0.00,CLR,,0.01,WeatherDisplay:10.37,2013-01-24 22:55:00,
2013-01-24 15:00:00,55.8,50.0,30.09,SW,225,6.9,6.9,81,0.00,CLR,,0.01,WeatherDisplay:10.37,2013-01-24 23:00:00,
2013-01-24 15:05:00,55.4,50.0,30.09,SW,225,10.4,10.4,82,0.00,CLR,,0.01,WeatherDisplay:10.37,2013-01-24 23:05:00,
2013-01-24 15:11:00,54.9,49.5,30.09,SW,225,13.7,13.7,82,0.00,CLR,,0.01,WeatherDisplay:10.37,2013-01-24 23:11:00,
2013-01-24 15:16:00,54.5,49.4,30.09,SW,225,16.1,16.1,83,0.00,CLR,,0.01,WeatherDisplay:10.37,2013-01-24 23:16:00,
2013-01-24 15:21:00,54.3,49.3,30.09,SW,225,5.8,5.8,83,0.00,CLR,,0.01,WeatherDisplay:10.37,2013-01-24 23:21:00,
2013-01-24 15:26:00,54.1,49.4,30.09,SW,225,10.4,10.4,84,0.00,CLR,,0.01,WeatherDisplay:10.37,2013-01-24 23:26:00,
2013-01-24 15:31:00,54.0,49.2,30.09,SW,225,12.7,12.7,84,0.00,CLR,,0.01,WeatherDisplay:10.37,2013-01-24 23:31:00,
2013-01-24 15:36:00,53.8,49.4,30.09,SW,225,12.7,12.7,85,0.00,CLR,,0.01,WeatherDisplay:10.37,2013-01-24 23:36:00,
2013-01-24 15:41:00,53.8,49.4,30.09,SW,225,6.9,6.9,85,0.00,CLR,,0.01,WeatherDisplay:10.37,2013-01-24 23:41:00,
2013-01-24 15:46:00,53.6,48.9,30.09,SW,225,16.1,16.1,84,0.00,CLR,,0.01,WeatherDisplay:10.37,2013-01-24 23:46:00,
2013-01-24 15:51:00,53.6,49.2,30.09,South,180,12.7,12.7,85,0.00,CLR,,0.01,WeatherDisplay:10.37,2013-01-24 23:51:00,
2013-01-24 15:56:00,53.4,49.0,30.09,SW,225,10.4,10.4,85,0.00,CLR,,0.01,WeatherDisplay:10.37,2013-01-24 23:56:00,
2013-01-24 16:01:00,53.4,49.0,30.10,SW,225,8.1,8.1,85,0.00,CLR,,0.01,WeatherDisplay:10.37,2013-01-25 00:01:00,
2013-01-24 16:06:00,53.2,48.8,30.09,South,180,11.5,11.5,85,0.00,CLR,,0.01,WeatherDisplay:10.37,2013-01-25 00:06:00,
2013-01-24 16:11:00,53.1,48.7,30.09,SW,225,15.0,15.0,85,0.00,CLR,,0.01,WeatherDisplay:10.37,2013-01-25 00:11:00,
2013-01-24 16:16:00,52.9,48.8,30.10,SSW,202,9.2,9.2,86,0.00,CLR,,0.01,WeatherDisplay:10.37,2013-01-25 00:16:00,
2013-01-24 16:21:00,52.7,48.9,30.10,SW,225,6.9,6.9,87,0.00,CLR,,0.01,WeatherDisplay:10.37,2013-01-25 00:21:00,
2013-01-24 16:26:00,52.5,49.1,30.10,SW,225,8.3,8.3,88,0.00,CLR,,0.01,WeatherDisplay:10.37,2013-01-25 00:26:00,
2013-01-24 16:31:00,52.5,49.1,30.10,SW,225,8.1,8.1,88,0.00,CLR,,0.01,WeatherDisplay:10.37,2013-01-25 00:31:00,
2013-01-24 16:36:00,52.3,49.2,30.11,SW,225,8.1,8.1,89,0.00,CLR,,0.01,WeatherDisplay:10.37,2013-01-25 00:36:00,
2013-01-24 16:41:00,52.0,48.8,30.11,SW,225,12.7,12.7,89,0.00,CLR,,0.01,WeatherDisplay:10.37,2013-01-25 00:41:00,
2013-01-24 16:46:00,52.0,49.1,30.11,SW,225,8.1,8.1,90,0.00,CLR,,0.01,WeatherDisplay:10.37,2013-01-25 00:46:00,
2013-01-24 16:51:00,51.8,49.0,30.11,SW,225,10.4,10.4,90,0.00,CLR,,0.01,WeatherDisplay:10.37,2013-01-25 00:51:00,
2013-01-24 16:56:00,51.6,48.8,30.11,SW,225,11.5,11.5,90,0.00,CLR,,0.01,WeatherDisplay:10.37,2013-01-25 00:56:00,
2013-01-24 17:01:00,51.6,49.1,30.11,South,180,10.4,10.4,91,0.00,CLR,,0.01,WeatherDisplay:10.37,2013-01-25 01:01:00,
2013-01-24 17:06:00,51.4,48.9,30.11,South,180,8.1,8.1,91,0.00,CLR,,0.01,WeatherDisplay:10.37,2013-01-25 01:06:00,
2013-01-24 17:11:00,51.4,48.9,30.11,South,180,9.2,9.2,91,0.00,CLR,,0.01,WeatherDisplay:10.37,2013-01-25 01:11:00,
2013-01-24 17:16:00,51.3,48.7,30.11,South,180,11.5,11.5,91,0.00,CLR,,0.01,WeatherDisplay:10.37,2013-01-25 01:16:00,
2013-01-24 17:21:00,51.3,48.7,30.11,SSW,202,8.1,8.1,91,0.00,CLR,,0.01,WeatherDisplay:10.37,2013-01-25 01:21:00,
2013-01-24 17:26:00,51.3,48.7,30.11,SW,225,6.9,6.9,91,0.00,CLR,,0.01,WeatherDisplay:10.37,2013-01-25 01:26:00,
2013-01-24 17:31:00,51.1,48.5,30.12,SW,225,9.2,9.2,91,0.00,CLR,,0.01,WeatherDisplay:10.37,2013-01-25 01:31:00,
2013-01-24 17:36:00,51.1,48.5,30.11,SSW,202,8.1,8.1,91,0.00,CLR,,0.01,WeatherDisplay:10.37,2013-01-25 01:36:00,
2013-01-24 17:41:00,50.9,48.4,30.12,SW,225,4.6,4.6,91,0.00,CLR,,0.01,WeatherDisplay:10.37,2013-01-25 01:41:00,
2013-01-24 17:46:00,50.9,48.7,30.11,SW,225,9.2,9.2,92,0.00,CLR,,0.01,WeatherDisplay:10.37,2013-01-25 01:46:00,
2013-01-24 17:51:00,50.7,48.5,30.12,SW,225,12.7,12.7,92,0.00,CLR,,0.01,WeatherDisplay:10.37,2013-01-25 01:51:00,
2013-01-24 17:56:00,50.9,48.4,30.12,South,180,10.4,10.4,91,0.00,CLR,,0.01,WeatherDisplay:10.37,2013-01-25 01:56:00,
2013-01-24 18:01:00,50.7,48.2,30.12,SW,225,12.7,12.7,91,0.00,CLR,,0.01,WeatherDisplay:10.37,2013-01-25 02:01:00,
2013-01-24 18:06:00,50.7,48.2,30.12,SW,225,9.2,9.2,91,0.00,CLR,,0.01,WeatherDisplay:10.37,2013-01-25 02:06:00,
2013-01-24 18:11:00,50.7,48.2,30.12,SW,225,12.7,12.7,91,0.00,CLR,,0.01,WeatherDisplay:10.37,2013-01-25 02:11:00,
2013-01-24 18:16:00,50.7,47.9,30.12,SW,225,12.7,12.7,90,0.00,CLR,,0.01,WeatherDisplay:10.37,2013-01-25 02:16:00,
2013-01-24 18:21:00,50.7,47.9,30.13,SW,225,8.1,8.1,90,0.00,CLR,,0.01,WeatherDisplay:10.37,2013-01-25 02:21:00,
2013-01-24 18:26:00,50.7,47.9,30.13,SW,225,8.1,8.1,90,0.00,CLR,,0.01,WeatherDisplay:10.37,2013-01-25 02:26:00,
2013-01-24 18:31:00,50.7,47.9,30.13,SW,225,8.1,8.1,90,0.00,CLR,,0.01,WeatherDisplay:10.37,2013-01-25 02:31:00,
2013-01-24 18:36:00,50.5,47.7,30.13,SW,225,8.1,8.1,90,0.00,CLR,,0.01,WeatherDisplay:10.37,2013-01-25 02:36:00,
2013-01-24 18:41:00,50.5,47.7,30.14,SW,225,4.6,4.6,90,0.00,CLR,,0.01,WeatherDisplay:10.37,2013-01-25 02:41:00,
2013-01-24 18:46:00,50.5,47.7,30.14,South,180,6.9,6.9,90,0.00,CLR,,0.01,WeatherDisplay:10.37,2013-01-25 02:46:00,
2013-01-24 18:51:00,50.5,47.4,30.14,South,180,5.8,5.8,89,0.00,CLR,,0.01,WeatherDisplay:10.37,2013-01-25 02:51:00,
2013-01-24 18:56:00,50.4,47.2,30.14,SW,225,4.6,4.6,89,0.00,CLR,,0.01,WeatherDisplay:10.37,2013-01-25 02:56:00,
2013-01-24 19:01:00,50.4,46.9,30.14,SW,225,5.8,5.8,88,0.00,CLR,,0.01,WeatherDisplay:10.37,2013-01-25 03:01:00,
2013-01-24 19:06:00,50.4,46.9,30.14,SW,225,4.6,4.6,88,0.00,CLR,,0.01,WeatherDisplay:10.37,2013-01-25 03:06:00,
2013-01-24 19:11:00,50.4,46.9,30.14,South,180,4.6,5.4,88,0.00,CLR,,0.01,WeatherDisplay:10.37,2013-01-25 03:11:00,
2013-01-24 19:16:00,50.4,46.6,30.14,SW,225,5.8,5.8,87,0.00,CLR,,0.01,WeatherDisplay:10.37,2013-01-25 03:16:00,
2013-01-24 19:21:00,50.4,46.6,30.14,SW,225,5.8,5.8,87,0.00,CLR,,0.01,WeatherDisplay:10.37,2013-01-25 03:21:00,
2013-01-24 19:26:00,50.2,46.5,30.14,SW,225,2.3,2.3,87,0.00,CLR,,0.01,WeatherDisplay:10.37,2013-01-25 03:26:00,
2013-01-24 19:31:00,50.0,46.3,30.14,SW,225,2.3,2.3,87,0.00,CLR,,0.01,WeatherDisplay:10.37,2013-01-25 03:31:00,
2013-01-24 19:36:00,50.0,46.3,30.15,South,180,2.3,2.3,87,0.00,CLR,,0.01,WeatherDisplay:10.37,2013-01-25 03:36:00,
2013-01-24 19:41:00,49.8,46.1,30.14,SE,135,2.3,2.3,87,0.00,CLR,,0.01,WeatherDisplay:10.37,2013-01-25 03:41:00,
2013-01-24 19:46:00,49.8,46.1,30.15,West,270,1.1,1.1,87,0.00,CLR,,0.01,WeatherDisplay:10.37,2013-01-25 03:46:00,
2013-01-24 19:51:00,49.6,46.2,30.15,SE,135,3.5,0.0,88,0.00,CLR,,0.01,WeatherDisplay:10.37,2013-01-25 03:51:00,
2013-01-24 19:56:00,49.5,46.1,30.15,SE,135,1.1,0.0,88,0.00,CLR,,0.01,WeatherDisplay:10.37,2013-01-25 03:56:00,
2013-01-24 20:01:00,49.1,46.0,30.15,South,180,2.3,2.3,89,0.00,CLR,,0.01,WeatherDisplay:10.37,2013-01-25 04:01:00,
2013-01-24 20:06:00,49.1,46.0,30.15,SSW,202,5.8,5.8,89,0.00,CLR,,0.01,WeatherDisplay:10.37,2013-01-25 04:06:00,
2013-01-24 20:11:00,48.9,45.8,30.15,South,180,3.5,3.5,89,0.01,RA,,0.02,WeatherDisplay:10.37,2013-01-25 04:11:00,
2013-01-24 20:16:00,48.7,45.6,30.15,SW,225,3.5,3.5,89,0.01,RA,,0.02,WeatherDisplay:10.37,2013-01-25 04:16:00,
2013-01-24 20:21:00,48.6,45.5,30.15,South,180,4.6,4.6,89,0.01,,,0.02,WeatherDisplay:10.37,2013-01-25 04:21:00,
2013-01-24 20:26:00,48.6,45.5,30.15,SW,225,8.1,8.1,89,0.01,CLR,,0.02,WeatherDisplay:10.37,2013-01-25 04:26:00,
2013-01-24 20:31:00,48.6,45.8,30.15,South,180,3.5,3.5,90,0.01,CLR,,0.02,WeatherDisplay:10.37,2013-01-25 04:31:00,
2013-01-24 20:36:00,48.4,45.6,30.15,South,180,5.8,5.8,90,0.02,RA,,0.04,WeatherDisplay:10.37,2013-01-25 04:36:00,
2013-01-24 20:41:00,48.2,45.4,30.15,SE,135,5.8,5.8,90,0.02,RA,,0.04,WeatherDisplay:10.37,2013-01-25 04:41:00,
2013-01-24 20:46:00,48.2,45.4,30.15,SW,225,3.5,3.5,90,0.02,CLR,,0.04,WeatherDisplay:10.37,2013-01-25 04:46:00,
2013-01-24 20:51:00,48.0,45.5,30.15,South,180,3.5,3.5,91,0.02,CLR,,0.04,WeatherDisplay:10.37,2013-01-25 04:51:00,
2013-01-24 20:56:00,48.0,45.5,30.15,South,180,6.9,6.9,91,0.02,CLR,,0.04,WeatherDisplay:10.37,2013-01-25 04:56:00,
2013-01-24 21:00:00,48.0,45.5,30.15,South,180,6.9,6.9,91,0.02,CLR,,0.04,WeatherDisplay:10.37,2013-01-25 05:00:00,
2013-01-24 21:01:00,47.8,45.3,30.14,SE,135,5.8,5.8,91,0.02,CLR,,0.04,WeatherDisplay:10.37,2013-01-25 05:01:00,
2013-01-24 21:03:00,48.0,45.2,30.15,South,180,8.1,8.1,90,0.02,CLR,,0.04,WeatherDisplay:10.37,2013-01-25 05:03:00,
2013-01-24 21:08:00,48.0,45.2,30.14,SE,135,4.6,4.6,90,0.02,CLR,,0.04,WeatherDisplay:10.37,2013-01-25 05:08:00,
2013-01-24 21:13:00,48.0,45.2,30.15,SW,225,4.6,4.6,90,0.01,CLR,,0.04,WeatherDisplay:10.37,2013-01-25 05:13:00,
2013-01-24 21:18:00,48.0,45.2,30.15,SW,225,5.8,5.8,90,0.01,CLR,,0.04,WeatherDisplay:10.37,2013-01-25 05:18:00,
2013-01-24 21:23:00,47.8,45.3,30.15,SSE,158,5.8,5.8,91,0.01,CLR,,0.04,WeatherDisplay:10.37,2013-01-25 05:23:00,
2013-01-24 21:28:00,47.8,45.0,30.15,South,180,5.8,5.8,90,0.01,CLR,,0.04,WeatherDisplay:10.37,2013-01-25 05:28:00,
2013-01-24 21:33:00,48.0,44.6,30.15,SW,225,12.7,12.7,88,0.01,RA,,0.05,WeatherDisplay:10.37,2013-01-25 05:33:00,
2013-01-24 21:38:00,48.0,44.6,30.15,SW,225,5.8,5.8,88,0.01,RA,,0.05,WeatherDisplay:10.37,2013-01-25 05:38:00,
2013-01-24 21:44:00,47.8,44.8,30.15,South,180,5.8,5.8,89,0.01,CLR,,0.05,WeatherDisplay:10.37,2013-01-25 05:44:00,
2013-01-24 21:49:00,47.7,44.6,30.15,SW,225,7.6,7.6,89,0.02,RA,,0.06,WeatherDisplay:10.37,2013-01-25 05:49:00,
2013-01-24 21:54:00,47.5,44.7,30.15,SW,225,3.5,3.5,90,0.02,RA,,0.06,WeatherDisplay:10.37,2013-01-25 05:54:00,
2013-01-24 21:59:00,47.5,44.7,30.15,SW,225,2.3,2.3,90,0.02,CLR,,0.06,WeatherDisplay:10.37,2013-01-25 05:59:00,
2013-01-24 22:04:00,47.3,44.8,30.15,SE,135,2.3,0.0,91,0.02,CLR,,0.06,WeatherDisplay:10.37,2013-01-25 06:04:00,
2013-01-24 22:09:00,47.1,44.6,30.15,SSE,158,3.5,3.5,91,0.02,CLR,,0.06,WeatherDisplay:10.37,2013-01-25 06:09:00,
2013-01-24 22:14:00,46.9,44.7,30.14,South,180,4.5,4.5,92,0.02,CLR,,0.06,WeatherDisplay:10.37,2013-01-25 06:14:00,
2013-01-24 22:19:00,47.1,44.9,30.14,South,180,4.6,4.6,92,0.02,CLR,,0.06,WeatherDisplay:10.37,2013-01-25 06:19:00,
2013-01-24 22:24:00,46.9,44.7,30.14,SE,135,3.5,3.5,92,0.02,CLR,,0.06,WeatherDisplay:10.37,2013-01-25 06:24:00,
2013-01-24 22:29:00,46.9,44.7,30.14,NE,45,1.1,0.0,92,0.02,CLR,,0.06,WeatherDisplay:10.37,2013-01-25 06:29:00,
2013-01-24 22:34:00,46.9,44.7,30.14,NE,45,2.3,2.3,92,0.01,CLR,,0.06,WeatherDisplay:10.37,2013-01-25 06:34:00,
2013-01-24 22:39:00,46.8,44.8,30.14,North,0,1.1,0.0,93,0.01,CLR,,0.06,WeatherDisplay:10.37,2013-01-25 06:39:00,
2013-01-24 22:44:00,46.6,44.7,30.14,West,270,1.1,0.0,93,0.01,CLR,,0.06,WeatherDisplay:10.37,2013-01-25 06:44:00,
2013-01-24 22:49:00,46.6,44.7,30.14,NW,315,1.1,0.0,93,0.00,CLR,,0.06,WeatherDisplay:10.37,2013-01-25 06:49:00,
2013-01-24 22:54:00,46.4,44.8,30.14,North,0,1.1,0.0,94,0.00,CLR,,0.06,WeatherDisplay:10.37,2013-01-25 06:54:00,
2013-01-24 22:59:00,46.4,44.8,30.14,NE,45,1.1,0.0,94,0.00,CLR,,0.06,WeatherDisplay:10.37,2013-01-25 06:59:00,
2013-01-24 23:04:00,46.4,44.8,30.14,NW,315,0.0,0.0,94,0.00,CLR,,0.06,WeatherDisplay:10.37,2013-01-25 07:04:00,
2013-01-24 23:09:00,46.4,44.8,30.14,West,270,1.1,0.0,94,0.00,CLR,,0.06,WeatherDisplay:10.37,2013-01-25 07:09:00,
2013-01-24 23:14:00,46.4,44.8,30.14,West,270,1.1,0.0,94,0.00,CLR,,0.06,WeatherDisplay:10.37,2013-01-25 07:14:00,
2013-01-24 23:19:00,46.4,44.8,30.14,West,270,0.0,0.0,94,0.00,CLR,,0.06,WeatherDisplay:10.37,2013-01-25 07:19:00,
2013-01-24 23:24:00,46.4,45.0,30.14,SW,225,0.0,0.0,95,0.00,CLR,,0.06,WeatherDisplay:10.37,2013-01-25 07:24:00,
2013-01-24 23:29:00,46.2,44.9,30.14,SW,225,1.1,0.0,95,0.00,CLR,,0.06,WeatherDisplay:10.37,2013-01-25 07:29:00,
2013-01-24 23:34:00,46.2,44.9,30.13,SW,225,0.0,0.0,95,0.00,CLR,,0.06,WeatherDisplay:10.37,2013-01-25 07:34:00,
2013-01-24 23:39:00,46.2,44.9,30.14,SW,225,0.0,0.0,95,0.00,CLR,,0.06,WeatherDisplay:10.37,2013-01-25 07:39:00,
2013-01-24 23:44:00,46.2,44.9,30.14,NE,45,1.1,0.0,95,0.00,CLR,,0.06,WeatherDisplay:10.37,2013-01-25 07:44:00,
2013-01-24 23:49:00,46.2,44.9,30.14,NE,45,0.0,0.0,95,0.00,CLR,,0.06,WeatherDisplay:10.37,2013-01-25 07:49:00,
2013-01-24 23:54:00,46.2,45.1,30.14,West,270,0.0,0.0,96,0.00,CLR,,0.06,WeatherDisplay:10.37,2013-01-25 07:54:00,
2013-01-24 23:59:00,46.2,45.1,30.14,West,270,1.1,0.0,96,0.00,CLR,,0.06,WeatherDisplay:10.37,2013-01-25 07:59:00,